sensor_id;sensor_type;location;lat;lon;timestamp;temperature;humidity
32107;DHT22;18622;51.998;10.440;2023-05-07T06:03:29;13.90;99.90
32107;DHT22;18622;51.998;10.440;2023-05-07T06:05:57;14.00;99.90
32107;DHT22;18622;51.998;10.440;2023-05-07T06:08:24;14.20;99.90
32107;DHT22;18622;51.998;10.440;2023-05-07T06:10:52;14.40;99.90
32107;DHT22;18622;51.998;10.440;2023-05-07T06:13:20;14.60;99.80
32107;DHT22;18622;51.998;10.440;2023-05-07T06:15:49;14.70;98.90
32107;DHT22;18622;51.998;10.440;2023-05-07T06:18:16;14.80;98.60
32107;DHT22;18622;51.998;10.440;2023-05-07T06:20:44;14.80;98.20
32107;DHT22;18622;51.998;10.440;2023-05-07T06:23:13;14.80;97.60
32107;DHT22;18622;51.998;10.440;2023-05-07T06:25:41;14.90;97.40
32107;DHT22;18622;51.998;10.440;2023-05-07T06:28:08;14.90;97.50
32107;DHT22;18622;51.998;10.440;2023-05-07T06:30:37;14.90;97.30
32107;DHT22;18622;51.998;10.440;2023-05-07T06:33:05;15.00;97.50
32107;DHT22;18622;51.998;10.440;2023-05-07T06:35:33;15.20;97.30
32107;DHT22;18622;51.998;10.440;2023-05-07T06:38:01;15.40;96.70
32107;DHT22;18622;51.998;10.440;2023-05-07T06:40:28;15.60;96.30
32107;DHT22;18622;51.998;10.440;2023-05-07T06:42:56;15.80;95.70
32107;DHT22;18622;51.998;10.440;2023-05-07T06:45:24;15.90;95.40
32107;DHT22;18622;51.998;10.440;2023-05-07T06:47:52;16.00;95.40
32107;DHT22;18622;51.998;10.440;2023-05-07T06:50:20;16.10;94.70
32107;DHT22;18622;51.998;10.440;2023-05-07T06:52:48;16.30;94.60
32107;DHT22;18622;51.998;10.440;2023-05-07T06:55:15;16.40;94.30
32107;DHT22;18622;51.998;10.440;2023-05-07T06:57:43;16.60;94.60
32107;DHT22;18622;51.998;10.440;2023-05-07T07:00:11;16.80;93.80
32107;DHT22;18622;51.998;10.440;2023-05-07T07:02:39;17.00;93.60
32107;DHT22;18622;51.998;10.440;2023-05-07T07:05:07;17.10;93.40
32107;DHT22;18622;51.998;10.440;2023-05-07T07:07:35;17.10;92.00
32107;DHT22;18622;51.998;10.440;2023-05-07T07:10:03;17.10;92.70
32107;DHT22;18622;51.998;10.440;2023-05-07T07:12:31;17.10;92.10
32107;DHT22;18622;51.998;10.440;2023-05-07T07:14:59;17.20;91.80
32107;DHT22;18622;51.998;10.440;2023-05-07T07:17:27;17.10;92.20
32107;DHT22;18622;51.998;10.440;2023-05-07T07:19:55;17.10;92.70
32107;DHT22;18622;51.998;10.440;2023-05-07T07:22:23;17.20;92.30
32107;DHT22;18622;51.998;10.440;2023-05-07T07:24:50;17.20;92.00
32107;DHT22;18622;51.998;10.440;2023-05-07T07:27:18;17.20;92.20
32107;DHT22;18622;51.998;10.440;2023-05-07T07:29:46;17.10;91.60
32107;DHT22;18622;51.998;10.440;2023-05-07T07:32:14;17.10;91.50
32107;DHT22;18622;51.998;10.440;2023-05-07T07:34:42;16.90;91.90
32107;DHT22;18622;51.998;10.440;2023-05-07T07:37:09;16.70;91.90
32107;DHT22;18622;51.998;10.440;2023-05-07T07:39:37;16.60;91.80
32107;DHT22;18622;51.998;10.440;2023-05-07T07:42:05;16.50;92.40
32107;DHT22;18622;51.998;10.440;2023-05-07T07:44:33;16.40;92.40
32107;DHT22;18622;51.998;10.440;2023-05-07T07:47:01;16.40;92.40
32107;DHT22;18622;51.998;10.440;2023-05-07T07:49:29;16.40;92.50
32107;DHT22;18622;51.998;10.440;2023-05-07T07:51:57;16.40;92.50
32107;DHT22;18622;51.998;10.440;2023-05-07T07:54:25;16.40;92.70
32107;DHT22;18622;51.998;10.440;2023-05-07T07:56:53;16.50;92.40
32107;DHT22;18622;51.998;10.440;2023-05-07T07:59:21;16.50;92.50
32107;DHT22;18622;51.998;10.440;2023-05-07T08:01:49;16.70;92.80
32107;DHT22;18622;51.998;10.440;2023-05-07T08:04:18;16.80;92.60
32107;DHT22;18622;51.998;10.440;2023-05-07T08:06:46;16.90;92.50
32107;DHT22;18622;51.998;10.440;2023-05-07T08:09:15;17.00;91.90
32107;DHT22;18622;51.998;10.440;2023-05-07T08:11:42;17.00;91.80
32107;DHT22;18622;51.998;10.440;2023-05-07T08:14:11;17.20;91.70
32107;DHT22;18622;51.998;10.440;2023-05-07T08:16:38;17.30;91.50
32107;DHT22;18622;51.998;10.440;2023-05-07T08:19:06;17.40;91.50
32107;DHT22;18622;51.998;10.440;2023-05-07T08:21:34;17.50;91.10
32107;DHT22;18622;51.998;10.440;2023-05-07T08:24:02;17.50;90.90
32107;DHT22;18622;51.998;10.440;2023-05-07T08:26:30;17.50;90.90
32107;DHT22;18622;51.998;10.440;2023-05-07T08:28:58;17.60;90.70
32107;DHT22;18622;51.998;10.440;2023-05-07T08:31:26;17.60;90.50
32107;DHT22;18622;51.998;10.440;2023-05-07T08:33:53;17.50;90.10
32107;DHT22;18622;51.998;10.440;2023-05-07T08:36:21;17.40;90.60
32107;DHT22;18622;51.998;10.440;2023-05-07T08:38:49;17.40;90.60
32107;DHT22;18622;51.998;10.440;2023-05-07T08:41:17;17.50;90.60
32107;DHT22;18622;51.998;10.440;2023-05-07T08:43:47;17.50;90.60
32107;DHT22;18622;51.998;10.440;2023-05-07T08:46:22;17.50;90.50
32107;DHT22;18622;51.998;10.440;2023-05-07T08:48:50;17.60;90.50
32107;DHT22;18622;51.998;10.440;2023-05-07T08:51:19;17.60;90.50
32107;DHT22;18622;51.998;10.440;2023-05-07T08:53:49;17.60;90.10
32107;DHT22;18622;51.998;10.440;2023-05-07T08:56:17;17.60;89.90
32107;DHT22;18622;51.998;10.440;2023-05-07T08:58:46;17.40;89.70
32107;DHT22;18622;51.998;10.440;2023-05-07T09:01:14;17.40;90.20
32107;DHT22;18622;51.998;10.440;2023-05-07T09:03:45;17.30;90.30
32107;DHT22;18622;51.998;10.440;2023-05-07T09:06:13;17.30;90.30
32107;DHT22;18622;51.998;10.440;2023-05-07T09:08:43;17.30;90.50
32107;DHT22;18622;51.998;10.440;2023-05-07T09:11:10;17.30;90.40
32107;DHT22;18622;51.998;10.440;2023-05-07T09:13:39;17.40;90.20
32107;DHT22;18622;51.998;10.440;2023-05-07T09:16:09;17.40;90.10
32107;DHT22;18622;51.998;10.440;2023-05-07T09:18:44;17.40;90.00
32107;DHT22;18622;51.998;10.440;2023-05-07T09:21:17;17.40;90.10
32107;DHT22;18622;51.998;10.440;2023-05-07T09:23:45;17.50;90.00
32107;DHT22;18622;51.998;10.440;2023-05-07T09:26:13;17.70;89.80
32107;DHT22;18622;51.998;10.440;2023-05-07T09:28:42;17.80;88.80
32107;DHT22;18622;51.998;10.440;2023-05-07T09:31:10;18.00;89.30
32107;DHT22;18622;51.998;10.440;2023-05-07T09:33:38;18.30;89.30
32107;DHT22;18622;51.998;10.440;2023-05-07T09:36:07;18.60;89.10
32107;DHT22;18622;51.998;10.440;2023-05-07T09:38:36;18.90;86.70
32107;DHT22;18622;51.998;10.440;2023-05-07T09:41:08;19.10;86.00
32107;DHT22;18622;51.998;10.440;2023-05-07T09:43:38;19.10;84.00
32107;DHT22;18622;51.998;10.440;2023-05-07T09:46:13;19.10;85.20
32107;DHT22;18622;51.998;10.440;2023-05-07T09:48:43;19.20;84.10
32107;DHT22;18622;51.998;10.440;2023-05-07T09:51:32;19.30;84.10
32107;DHT22;18622;51.998;10.440;2023-05-07T09:54:00;19.40;85.00
32107;DHT22;18622;51.998;10.440;2023-05-07T09:56:32;19.60;83.60
32107;DHT22;18622;51.998;10.440;2023-05-07T09:59:00;19.60;82.30
32107;DHT22;18622;51.998;10.440;2023-05-07T10:01:30;19.60;82.70
32107;DHT22;18622;51.998;10.440;2023-05-07T10:03:57;19.80;82.20
32107;DHT22;18622;51.998;10.440;2023-05-07T10:06:25;19.90;81.10
32107;DHT22;18622;51.998;10.440;2023-05-07T10:08:54;20.00;81.90
32107;DHT22;18622;51.998;10.440;2023-05-07T10:11:22;20.20;80.90
32107;DHT22;18622;51.998;10.440;2023-05-07T10:13:50;20.40;80.60
32107;DHT22;18622;51.998;10.440;2023-05-07T10:16:20;20.60;79.80
32107;DHT22;18622;51.998;10.440;2023-05-07T10:18:50;20.60;79.80
32107;DHT22;18622;51.998;10.440;2023-05-07T10:21:20;20.70;78.40
32107;DHT22;18622;51.998;10.440;2023-05-07T10:23:59;20.70;78.40
32107;DHT22;18622;51.998;10.440;2023-05-07T10:26:20;20.90;78.10
32107;DHT22;18622;51.998;10.440;2023-05-07T10:28:52;21.00;76.10
32107;DHT22;18622;51.998;10.440;2023-05-07T10:31:48;21.10;75.50
32107;DHT22;18622;51.998;10.440;2023-05-07T10:34:16;21.10;76.00
32107;DHT22;18622;51.998;10.440;2023-05-07T10:36:45;21.10;75.80
32107;DHT22;18622;51.998;10.440;2023-05-07T10:39:13;21.20;75.50
32107;DHT22;18622;51.998;10.440;2023-05-07T10:41:40;21.30;73.60
32107;DHT22;18622;51.998;10.440;2023-05-07T10:44:08;21.50;73.30
32107;DHT22;18622;51.998;10.440;2023-05-07T10:46:36;21.50;72.30
32107;DHT22;18622;51.998;10.440;2023-05-07T10:49:06;21.60;72.20
32107;DHT22;18622;51.998;10.440;2023-05-07T10:51:33;21.60;72.20
32107;DHT22;18622;51.998;10.440;2023-05-07T10:56:42;22.00;72.80
32107;DHT22;18622;51.998;10.440;2023-05-07T10:59:30;22.20;71.70
32107;DHT22;18622;51.998;10.440;2023-05-07T11:01:59;22.40;68.90
32107;DHT22;18622;51.998;10.440;2023-05-07T11:04:29;22.60;68.90
32107;DHT22;18622;51.998;10.440;2023-05-07T11:10:11;23.00;67.80
32107;DHT22;18622;51.998;10.440;2023-05-07T11:12:13;23.50;67.30
32107;DHT22;18622;51.998;10.440;2023-05-07T11:14:43;24.00;65.50
32107;DHT22;18622;51.998;10.440;2023-05-07T11:17:10;24.20;64.30
32107;DHT22;18622;51.998;10.440;2023-05-07T11:19:54;24.30;63.60
32107;DHT22;18622;51.998;10.440;2023-05-07T11:25:00;24.60;62.30
32107;DHT22;18622;51.998;10.440;2023-05-07T11:27:29;24.60;61.20
32107;DHT22;18622;51.998;10.440;2023-05-07T11:29:56;24.70;60.20
32107;DHT22;18622;51.998;10.440;2023-05-07T11:32:26;24.90;59.10
32107;DHT22;18622;51.998;10.440;2023-05-07T11:34:55;25.10;58.90
32107;DHT22;18622;51.998;10.440;2023-05-07T11:37:24;25.10;58.90
32107;DHT22;18622;51.998;10.440;2023-05-07T11:40:06;24.90;58.10
32107;DHT22;18622;51.998;10.440;2023-05-07T11:42:36;24.90;58.90
32107;DHT22;18622;51.998;10.440;2023-05-07T11:45:05;24.90;59.70
32107;DHT22;18622;51.998;10.440;2023-05-07T11:47:33;25.40;58.20
32107;DHT22;18622;51.998;10.440;2023-05-07T11:50:05;25.80;57.90
32107;DHT22;18622;51.998;10.440;2023-05-07T11:52:34;26.20;56.20
32107;DHT22;18622;51.998;10.440;2023-05-07T11:55:02;26.60;55.50
32107;DHT22;18622;51.998;10.440;2023-05-07T11:57:32;26.80;54.50
32107;DHT22;18622;51.998;10.440;2023-05-07T12:00:01;27.10;52.80
32107;DHT22;18622;51.998;10.440;2023-05-07T12:02:31;27.30;53.20
32107;DHT22;18622;51.998;10.440;2023-05-07T12:05:00;27.70;52.70
32107;DHT22;18622;51.998;10.440;2023-05-07T12:07:29;27.90;51.90
32107;DHT22;18622;51.998;10.440;2023-05-07T12:09:58;28.20;51.20
32107;DHT22;18622;51.998;10.440;2023-05-07T12:12:26;28.50;50.70
32107;DHT22;18622;51.998;10.440;2023-05-07T12:14:54;28.70;50.20
32107;DHT22;18622;51.998;10.440;2023-05-07T12:17:21;29.00;49.00
32107;DHT22;18622;51.998;10.440;2023-05-07T12:19:49;29.40;48.10
32107;DHT22;18622;51.998;10.440;2023-05-07T12:22:18;29.50;46.80
32107;DHT22;18622;51.998;10.440;2023-05-07T12:24:48;29.20;46.20
32107;DHT22;18622;51.998;10.440;2023-05-07T12:27:17;28.70;47.00
32107;DHT22;18622;51.998;10.440;2023-05-07T12:29:48;28.10;47.30
32107;DHT22;18622;51.998;10.440;2023-05-07T12:32:17;27.60;49.00
32107;DHT22;18622;51.998;10.440;2023-05-07T12:34:45;27.10;48.50
32107;DHT22;18622;51.998;10.440;2023-05-07T12:37:13;26.80;49.40
32107;DHT22;18622;51.998;10.440;2023-05-07T12:40:10;26.50;50.00
32107;DHT22;18622;51.998;10.440;2023-05-07T12:42:37;26.20;50.50
32107;DHT22;18622;51.998;10.440;2023-05-07T12:45:15;26.00;50.20
32107;DHT22;18622;51.998;10.440;2023-05-07T12:47:46;25.60;50.70
32107;DHT22;18622;51.998;10.440;2023-05-07T12:50:15;25.30;51.50
32107;DHT22;18622;51.998;10.440;2023-05-07T12:52:45;25.00;51.20
32107;DHT22;18622;51.998;10.440;2023-05-07T12:55:15;24.80;52.00
32107;DHT22;18622;51.998;10.440;2023-05-07T12:57:49;24.80;51.80
32107;DHT22;18622;51.998;10.440;2023-05-07T13:00:13;24.70;52.60
32107;DHT22;18622;51.998;10.440;2023-05-07T13:02:42;24.60;53.20
32107;DHT22;18622;51.998;10.440;2023-05-07T13:05:13;24.60;52.40
32107;DHT22;18622;51.998;10.440;2023-05-07T13:07:40;24.40;52.50
32107;DHT22;18622;51.998;10.440;2023-05-07T13:10:09;24.20;53.00
32107;DHT22;18622;51.998;10.440;2023-05-07T13:12:36;24.00;53.20
32107;DHT22;18622;51.998;10.440;2023-05-07T13:15:04;23.80;54.10
32107;DHT22;18622;51.998;10.440;2023-05-07T13:17:32;23.70;53.60
32107;DHT22;18622;51.998;10.440;2023-05-07T13:20:00;23.80;54.10
32107;DHT22;18622;51.998;10.440;2023-05-07T13:22:28;23.80;54.40
32107;DHT22;18622;51.998;10.440;2023-05-07T13:24:55;23.90;54.10
32107;DHT22;18622;51.998;10.440;2023-05-07T13:27:23;23.90;53.90
32107;DHT22;18622;51.998;10.440;2023-05-07T13:29:51;23.80;52.80
32107;DHT22;18622;51.998;10.440;2023-05-07T13:32:19;23.70;54.30
32107;DHT22;18622;51.998;10.440;2023-05-07T13:34:47;23.60;55.40
32107;DHT22;18622;51.998;10.440;2023-05-07T13:37:14;23.70;54.70
32107;DHT22;18622;51.998;10.440;2023-05-07T13:39:42;23.80;54.10
32107;DHT22;18622;51.998;10.440;2023-05-07T13:42:11;23.80;53.50
32107;DHT22;18622;51.998;10.440;2023-05-07T13:44:38;23.90;54.00
32107;DHT22;18622;51.998;10.440;2023-05-07T13:47:06;24.10;54.10
32107;DHT22;18622;51.998;10.440;2023-05-07T13:49:34;24.60;53.60
32107;DHT22;18622;51.998;10.440;2023-05-07T13:52:03;24.80;52.60
32107;DHT22;18622;51.998;10.440;2023-05-07T13:54:30;25.10;51.70
32107;DHT22;18622;51.998;10.440;2023-05-07T13:56:58;25.40;51.20
32107;DHT22;18622;51.998;10.440;2023-05-07T13:59:26;25.60;52.00
32107;DHT22;18622;51.998;10.440;2023-05-07T14:01:54;26.30;50.30
32107;DHT22;18622;51.998;10.440;2023-05-07T14:04:22;27.10;49.70
32107;DHT22;18622;51.998;10.440;2023-05-07T14:06:49;28.00;47.50
32107;DHT22;18622;51.998;10.440;2023-05-07T14:09:17;28.40;47.20
32107;DHT22;18622;51.998;10.440;2023-05-07T14:11:45;28.60;46.60
32107;DHT22;18622;51.998;10.440;2023-05-07T14:14:13;28.20;46.10
32107;DHT22;18622;51.998;10.440;2023-05-07T14:16:41;27.80;46.40
32107;DHT22;18622;51.998;10.440;2023-05-07T14:19:09;27.50;47.00
32107;DHT22;18622;51.998;10.440;2023-05-07T14:21:37;27.10;47.40
32107;DHT22;18622;51.998;10.440;2023-05-07T14:24:07;26.80;48.00
32107;DHT22;18622;51.998;10.440;2023-05-07T14:26:37;26.60;48.30
32107;DHT22;18622;51.998;10.440;2023-05-07T14:29:05;26.10;48.30
32107;DHT22;18622;51.998;10.440;2023-05-07T14:31:33;25.50;49.10
32107;DHT22;18622;51.998;10.440;2023-05-07T14:34:00;25.00;49.80
32107;DHT22;18622;51.998;10.440;2023-05-07T14:36:28;24.90;50.50
32107;DHT22;18622;51.998;10.440;2023-05-07T14:38:58;24.80;50.70
32107;DHT22;18622;51.998;10.440;2023-05-07T14:41:26;24.80;50.80
32107;DHT22;18622;51.998;10.440;2023-05-07T14:43:54;25.30;49.90
32107;DHT22;18622;51.998;10.440;2023-05-07T14:46:21;25.80;50.70
32107;DHT22;18622;51.998;10.440;2023-05-07T14:48:50;26.50;50.30
32107;DHT22;18622;51.998;10.440;2023-05-07T14:51:18;27.10;49.10
32107;DHT22;18622;51.998;10.440;2023-05-07T14:53:45;27.60;48.00
32107;DHT22;18622;51.998;10.440;2023-05-07T14:56:13;27.80;47.10
32107;DHT22;18622;51.998;10.440;2023-05-07T14:58:41;27.80;47.30
32107;DHT22;18622;51.998;10.440;2023-05-07T15:01:09;27.80;47.00
32107;DHT22;18622;51.998;10.440;2023-05-07T15:03:37;27.70;46.70
32107;DHT22;18622;51.998;10.440;2023-05-07T15:06:04;27.50;46.20
32107;DHT22;18622;51.998;10.440;2023-05-07T15:08:32;27.40;47.60
32107;DHT22;18622;51.998;10.440;2023-05-07T15:11:00;27.50;47.10
32107;DHT22;18622;51.998;10.440;2023-05-07T15:13:28;27.50;47.40
32107;DHT22;18622;51.998;10.440;2023-05-07T15:15:56;27.30;46.50
32107;DHT22;18622;51.998;10.440;2023-05-07T15:18:23;27.00;46.60
32107;DHT22;18622;51.998;10.440;2023-05-07T15:20:51;26.50;47.00
32107;DHT22;18622;51.998;10.440;2023-05-07T15:23:19;26.10;48.00
32107;DHT22;18622;51.998;10.440;2023-05-07T15:25:47;25.70;48.30
32107;DHT22;18622;51.998;10.440;2023-05-07T15:28:15;25.30;48.40
32107;DHT22;18622;51.998;10.440;2023-05-07T15:30:42;25.00;48.80
32107;DHT22;18622;51.998;10.440;2023-05-07T15:33:10;24.60;49.10
32107;DHT22;18622;51.998;10.440;2023-05-07T15:35:38;24.20;49.90
32107;DHT22;18622;51.998;10.440;2023-05-07T15:38:06;23.80;50.20
32107;DHT22;18622;51.998;10.440;2023-05-07T15:40:35;23.40;51.20
32107;DHT22;18622;51.998;10.440;2023-05-07T15:43:04;23.00;51.80
32107;DHT22;18622;51.998;10.440;2023-05-07T15:45:32;22.90;52.10
32107;DHT22;18622;51.998;10.440;2023-05-07T15:48:00;22.80;51.80
32107;DHT22;18622;51.998;10.440;2023-05-07T15:50:28;22.70;52.30
32107;DHT22;18622;51.998;10.440;2023-05-07T15:52:56;22.60;52.10
32107;DHT22;18622;51.998;10.440;2023-05-07T15:55:24;22.30;52.10
32107;DHT22;18622;51.998;10.440;2023-05-07T15:57:52;22.10;53.10
32107;DHT22;18622;51.998;10.440;2023-05-07T16:00:20;22.00;53.40
32107;DHT22;18622;51.998;10.440;2023-05-07T16:02:48;22.10;54.10
32107;DHT22;18622;51.998;10.440;2023-05-07T16:05:16;22.20;53.70
32107;DHT22;18622;51.998;10.440;2023-05-07T16:07:44;22.40;53.10
32107;DHT22;18622;51.998;10.440;2023-05-07T16:10:11;22.60;53.40
32107;DHT22;18622;51.998;10.440;2023-05-07T16:12:39;22.50;53.90
32107;DHT22;18622;51.998;10.440;2023-05-07T16:15:07;22.50;53.60
32107;DHT22;18622;51.998;10.440;2023-05-07T16:17:35;22.40;54.00
32107;DHT22;18622;51.998;10.440;2023-05-07T16:20:03;22.10;54.50
32107;DHT22;18622;51.998;10.440;2023-05-07T16:22:32;21.90;54.20
32107;DHT22;18622;51.998;10.440;2023-05-07T16:24:59;21.60;54.90
32107;DHT22;18622;51.998;10.440;2023-05-07T16:27:28;21.30;55.80
32107;DHT22;18622;51.998;10.440;2023-05-07T16:29:56;21.30;56.00
32107;DHT22;18622;51.998;10.440;2023-05-07T16:32:23;21.30;56.00
32107;DHT22;18622;51.998;10.440;2023-05-07T16:34:53;21.50;55.30
32107;DHT22;18622;51.998;10.440;2023-05-07T16:37:21;21.60;55.60
32107;DHT22;18622;51.998;10.440;2023-05-07T16:39:48;21.50;55.10
32107;DHT22;18622;51.998;10.440;2023-05-07T16:42:16;21.30;55.40
32107;DHT22;18622;51.998;10.440;2023-05-07T16:44:44;21.00;56.10
32107;DHT22;18622;51.998;10.440;2023-05-07T16:47:12;20.70;57.10
32107;DHT22;18622;51.998;10.440;2023-05-07T16:49:40;20.50;57.70
32107;DHT22;18622;51.998;10.440;2023-05-07T16:52:07;20.10;57.90
32107;DHT22;18622;51.998;10.440;2023-05-07T16:54:35;19.80;58.60
32107;DHT22;18622;51.998;10.440;2023-05-07T16:57:03;19.50;59.50
32107;DHT22;18622;51.998;10.440;2023-05-07T16:59:31;19.20;60.50
32107;DHT22;18622;51.998;10.440;2023-05-07T17:01:59;19.00;60.90
32107;DHT22;18622;51.998;10.440;2023-05-07T17:04:27;18.70;61.60
32107;DHT22;18622;51.998;10.440;2023-05-07T17:06:55;18.50;61.80
32107;DHT22;18622;51.998;10.440;2023-05-07T17:09:23;18.30;62.20
32107;DHT22;18622;51.998;10.440;2023-05-07T17:11:51;18.00;62.50
32107;DHT22;18622;51.998;10.440;2023-05-07T17:14:19;17.80;63.00
32107;DHT22;18622;51.998;10.440;2023-05-07T17:16:47;17.60;63.40
32107;DHT22;18622;51.998;10.440;2023-05-07T17:19:14;17.30;63.60
32107;DHT22;18622;51.998;10.440;2023-05-07T17:21:42;17.10;64.00
32107;DHT22;18622;51.998;10.440;2023-05-07T17:24:10;16.90;64.70
32107;DHT22;18622;51.998;10.440;2023-05-07T17:26:38;16.70;65.30
32107;DHT22;18622;51.998;10.440;2023-05-07T17:29:08;16.60;65.70
32107;DHT22;18622;51.998;10.440;2023-05-07T17:31:35;16.50;66.00
32107;DHT22;18622;51.998;10.440;2023-05-07T17:34:03;16.40;66.70
32107;DHT22;18622;51.998;10.440;2023-05-07T17:36:31;16.20;67.50
32107;DHT22;18622;51.998;10.440;2023-05-07T17:38:59;16.10;68.40
32107;DHT22;18622;51.998;10.440;2023-05-07T17:41:27;16.00;68.60
32107;DHT22;18622;51.998;10.440;2023-05-07T17:43:54;15.90;68.70
32107;DHT22;18622;51.998;10.440;2023-05-07T17:46:22;15.70;68.60
32107;DHT22;18622;51.998;10.440;2023-05-07T17:48:50;15.50;69.00
32107;DHT22;18622;51.998;10.440;2023-05-07T17:51:18;15.30;69.90
32107;DHT22;18622;51.998;10.440;2023-05-07T17:53:46;15.10;70.90
32107;DHT22;18622;51.998;10.440;2023-05-07T17:56:13;15.00;70.80
32107;DHT22;18622;51.998;10.440;2023-05-07T17:58:41;14.90;71.30
32107;DHT22;18622;51.998;10.440;2023-05-07T18:01:09;14.80;71.70
32107;DHT22;18622;51.998;10.440;2023-05-07T18:03:37;14.80;72.10
32107;DHT22;18622;51.998;10.440;2023-05-07T18:06:05;14.80;72.40
32107;DHT22;18622;51.998;10.440;2023-05-07T18:08:34;14.80;73.00
32107;DHT22;18622;51.998;10.440;2023-05-07T18:11:01;14.70;72.70
32107;DHT22;18622;51.998;10.440;2023-05-07T18:13:31;14.60;73.00
32107;DHT22;18622;51.998;10.440;2023-05-07T18:15:58;14.40;73.50
32107;DHT22;18622;51.998;10.440;2023-05-07T18:18:26;14.20;74.20
32107;DHT22;18622;51.998;10.440;2023-05-07T18:20:57;14.00;74.20
32107;DHT22;18622;51.998;10.440;2023-05-07T18:23:24;13.90;74.90
32107;DHT22;18622;51.998;10.440;2023-05-07T18:25:52;13.70;75.40
32107;DHT22;18622;51.998;10.440;2023-05-07T18:28:20;13.50;76.00
32107;DHT22;18622;51.998;10.440;2023-05-07T18:30:48;13.40;76.50
32107;DHT22;18622;51.998;10.440;2023-05-07T18:33:16;13.40;77.00
32107;DHT22;18622;51.998;10.440;2023-05-07T18:35:43;13.30;77.80
32107;DHT22;18622;51.998;10.440;2023-05-07T18:38:11;13.20;78.30
32107;DHT22;18622;51.998;10.440;2023-05-07T18:40:39;13.10;78.90
32107;DHT22;18622;51.998;10.440;2023-05-07T18:43:09;13.10;79.00
32107;DHT22;18622;51.998;10.440;2023-05-07T18:45:37;13.00;79.70
32107;DHT22;18622;51.998;10.440;2023-05-07T18:48:05;13.00;80.10
32107;DHT22;18622;51.998;10.440;2023-05-07T18:50:33;13.00;80.60
32107;DHT22;18622;51.998;10.440;2023-05-07T18:53:01;12.90;80.60
32107;DHT22;18622;51.998;10.440;2023-05-07T18:55:29;12.90;81.30
32107;DHT22;18622;51.998;10.440;2023-05-07T18:57:57;12.90;82.00
32107;DHT22;18622;51.998;10.440;2023-05-07T19:00:24;12.90;82.80
32107;DHT22;18622;51.998;10.440;2023-05-07T19:02:52;12.90;83.50
32107;DHT22;18622;51.998;10.440;2023-05-07T19:05:20;12.90;83.90
32107;DHT22;18622;51.998;10.440;2023-05-07T19:07:48;12.90;84.70
32107;DHT22;18622;51.998;10.440;2023-05-07T19:10:16;12.80;85.10
32107;DHT22;18622;51.998;10.440;2023-05-07T19:12:44;12.80;85.20
32107;DHT22;18622;51.998;10.440;2023-05-07T19:15:12;12.80;85.50
32107;DHT22;18622;51.998;10.440;2023-05-07T19:17:39;12.70;85.90
32107;DHT22;18622;51.998;10.440;2023-05-07T19:20:08;12.60;87.00
32107;DHT22;18622;51.998;10.440;2023-05-07T19:22:35;12.60;87.70
32107;DHT22;18622;51.998;10.440;2023-05-07T19:25:04;12.60;88.60
32107;DHT22;18622;51.998;10.440;2023-05-07T19:27:32;12.50;89.40
32107;DHT22;18622;51.998;10.440;2023-05-07T19:29:59;12.60;90.10
32107;DHT22;18622;51.998;10.440;2023-05-07T19:32:27;12.60;90.70
32107;DHT22;18622;51.998;10.440;2023-05-07T19:34:55;12.60;91.10
32107;DHT22;18622;51.998;10.440;2023-05-07T19:37:23;12.60;91.30
32107;DHT22;18622;51.998;10.440;2023-05-07T19:39:53;12.50;91.60
32107;DHT22;18622;51.998;10.440;2023-05-07T19:42:21;12.50;92.10
32107;DHT22;18622;51.998;10.440;2023-05-07T19:44:49;12.50;92.70
32107;DHT22;18622;51.998;10.440;2023-05-07T19:47:17;12.40;93.10
32107;DHT22;18622;51.998;10.440;2023-05-07T19:49:45;12.40;93.10
32107;DHT22;18622;51.998;10.440;2023-05-07T19:52:13;12.30;93.70
32107;DHT22;18622;51.998;10.440;2023-05-07T19:54:41;12.20;94.30
32107;DHT22;18622;51.998;10.440;2023-05-07T19:57:08;12.20;94.70
32107;DHT22;18622;51.998;10.440;2023-05-07T19:59:36;12.10;94.90
32107;DHT22;18622;51.998;10.440;2023-05-07T20:02:04;12.10;95.30
32107;DHT22;18622;51.998;10.440;2023-05-07T20:04:32;12.00;95.70
32107;DHT22;18622;51.998;10.440;2023-05-07T20:07:02;11.90;96.20
32107;DHT22;18622;51.998;10.440;2023-05-07T20:09:30;11.90;96.50
32107;DHT22;18622;51.998;10.440;2023-05-07T20:11:57;11.80;96.70
32107;DHT22;18622;51.998;10.440;2023-05-07T20:14:28;11.80;97.00
32107;DHT22;18622;51.998;10.440;2023-05-07T20:16:55;11.80;97.10
32107;DHT22;18622;51.998;10.440;2023-05-07T20:19:23;11.70;97.10
32107;DHT22;18622;51.998;10.440;2023-05-07T20:21:51;11.70;97.20
32107;DHT22;18622;51.998;10.440;2023-05-07T20:24:19;11.60;97.60
32107;DHT22;18622;51.998;10.440;2023-05-07T20:26:46;11.50;98.00
32107;DHT22;18622;51.998;10.440;2023-05-07T20:29:14;11.50;98.10
32107;DHT22;18622;51.998;10.440;2023-05-07T20:31:42;11.40;98.40
32107;DHT22;18622;51.998;10.440;2023-05-07T20:34:10;11.30;98.60
32107;DHT22;18622;51.998;10.440;2023-05-07T20:36:38;11.30;98.90
32107;DHT22;18622;51.998;10.440;2023-05-07T20:39:05;11.30;98.60
32107;DHT22;18622;51.998;10.440;2023-05-07T20:41:33;11.30;98.90
32107;DHT22;18622;51.998;10.440;2023-05-07T20:44:01;11.20;99.10
32107;DHT22;18622;51.998;10.440;2023-05-07T20:46:29;11.20;99.10
32107;DHT22;18622;51.998;10.440;2023-05-07T20:48:57;11.20;98.90
32107;DHT22;18622;51.998;10.440;2023-05-07T20:51:24;11.20;99.10
32107;DHT22;18622;51.998;10.440;2023-05-07T20:53:52;11.20;99.00
32107;DHT22;18622;51.998;10.440;2023-05-07T20:56:20;11.20;98.70
32107;DHT22;18622;51.998;10.440;2023-05-07T20:58:48;11.10;98.90
